Bridgewater, New Hampshire
Current Conditions -  °F | °C
As of 10:35 PM on Saturday 24 Jan 2015 (Local Time) from K1P1 Reporting Station
Light Snow Light Snow  
Wind Chill: 22°   Ceiling: 1600
Heat Index: 31°   Visibility: 5mi
Dew Point: 28°   Wind: 12mph
Humidity: 86%   Direction: 300°WNW
Pressure: 29.24"   Gusts: 21mph
Location:  43.8032°N, 71.7266°W
Report Text: K1P1 250335Z AUTO 30010G18KT 5SM -SN BKN016 BKN030 OVC080 00/M02 A2924 RMK AO2 T10051025
Loading
Personal Weather Stations






























Interactive Weather Map New forecast layout! Learn more

10-Day Weather Forecast

Advertisements
Track Severe Weather on mobile